Tufão RAI 2021: trajetória, intensidade e histórico
21/12/2021, 12:00:00
11/12/2021, 12:00:00 – 21/12/2021, 12:00:00
Trajetória histórica
Acompanhe a evolução e o deslocamento de Tufão RAI em 2021, com a trajetória completa registrada, ventos máximos sustentados de 150 nós, pressão central mínima e cronologia detalhada.
| Data | Hora | Tipo | Ventokm/h | PressãohPa |
|---|---|---|---|---|
| 21/12 | 12:00 | SDDepressão subtropical | 45 | 1010 |
| 21/12 | 09:00 | SDDepressão subtropical | 50 | 1009 |
| 21/12 | 06:00 | TDDepressão tropical | 55 | 1007 |
| 21/12 | 03:00 | SSTempestade subtropical | 60 | 1006 |
| 21/12 | 00:00 | TDDepressão tropical | 65 | 1005 |
| 20/12 | 21:00 | SSTempestade subtropical | 70 | 1006 |
| 20/12 | 18:00 | TDDepressão tropical | 75 | 1006 |
| 20/12 | 15:00 | TSTempestade tropical | 80 | 1004 |
| 20/12 | 12:00 | TSTempestade tropical | 85 | 1001 |
| 20/12 | 09:00 | TSTempestade tropical | 90 | 1000 |
| 20/12 | 06:00 | STSTempestade tropical severa | 95 | 998 |
| 20/12 | 03:00 | TTufão | 110 | 993 |
| 20/12 | 00:00 | TTufão | 130 | 988 |
| 19/12 | 21:00 | TTufão | 135 | 986 |
| 19/12 | 18:00 | TTufão | 140 | 983 |
| 19/12 | 15:00 | TTufão | 150 | 979 |
| 19/12 | 12:00 | TTufão | 155 | 974 |
| 19/12 | 09:00 | TTufão | 170 | 966 |
| 19/12 | 06:00 | STSupertufão | 185 | 958 |
| 19/12 | 03:00 | STSupertufão | 205 | 950 |
| 19/12 | 00:00 | STSupertufão | 220 | 941 |
| 18/12 | 21:00 | STSupertufão | 230 | 936 |
| 18/12 | 18:00 | STSupertufão | 240 | 931 |
| 18/12 | 15:00 | STSupertufão | 250 | 926 |
| 18/12 | 12:00 | STSupertufão | 260 | 921 |
| 18/12 | 09:00 | STSupertufão | 235 | 935 |
| 18/12 | 06:00 | STSupertufão | 215 | 948 |
| 18/12 | 03:00 | STSupertufão | 200 | 955 |
| 18/12 | 00:00 | STSupertufão | 185 | 962 |
| 17/12 | 21:00 | TTufão | 175 | 964 |
| 17/12 | 18:00 | TTufão | 165 | 966 |
| 17/12 | 15:00 | TTufão | 165 | 967 |
| 17/12 | 12:00 | TTufão | 165 | 968 |
| 17/12 | 09:00 | TTufão | 165 | 969 |
| 17/12 | 06:00 | TTufão | 155 | 970 |
| 17/12 | 03:00 | TTufão | 165 | 968 |
| 17/12 | 00:00 | TTufão | 175 | 965 |
| 16/12 | 21:00 | STSupertufão | 190 | 958 |
| 16/12 | 18:00 | STSupertufão | 205 | 951 |
| 16/12 | 15:00 | STSupertufão | 215 | 947 |
| 16/12 | 12:00 | STSupertufão | 220 | 943 |
| 16/12 | 09:00 | STSupertufão | 235 | 934 |
| 16/12 | 06:00 | STSupertufão | 250 | 925 |
| 16/12 | 03:00 | STSupertufão | 265 | 917 |
| 16/12 | 00:00 | STSupertufão | 280 | 908 |
| 15/12 | 21:00 | STSupertufão | 255 | 921 |
| 15/12 | 18:00 | STSupertufão | 230 | 934 |
| 15/12 | 15:00 | STSupertufão | 200 | 950 |
| 15/12 | 12:00 | TTufão | 165 | 965 |
| 15/12 | 09:00 | TTufão | 155 | 972 |
| 15/12 | 06:00 | TTufão | 140 | 978 |
| 15/12 | 03:00 | TTufão | 135 | 980 |
| 15/12 | 00:00 | TTufão | 130 | 982 |
| 14/12 | 21:00 | TTufão | 125 | 982 |
| 14/12 | 18:00 | TTufão | 120 | 982 |
| 14/12 | 15:00 | TSTempestade tropical | 115 | 986 |
| 14/12 | 12:00 | STSTempestade tropical severa | 110 | 990 |
| 14/12 | 09:00 | TSTempestade tropical | 105 | 991 |
| 14/12 | 06:00 | STSTempestade tropical severa | 100 | 991 |
| 14/12 | 03:00 | TSTempestade tropical | 100 | 991 |
| 14/12 | 00:00 | STSTempestade tropical severa | 95 | 991 |
| 13/12 | 21:00 | TSTempestade tropical | 90 | 992 |
| 13/12 | 18:00 | TSTempestade tropical | 85 | 993 |
| 13/12 | 15:00 | TSTempestade tropical | 75 | 997 |
| 13/12 | 12:00 | TSTempestade tropical | 65 | 1000 |
| 13/12 | 09:00 | TDDepressão tropical | 60 | 1001 |
| 13/12 | 06:00 | TSTempestade tropical | 55 | 1001 |
| 13/12 | 03:00 | TDDepressão tropical | 50 | 1002 |
| 13/12 | 00:00 | TDDepressão tropical | 45 | 1002 |
| 12/12 | 21:00 | TDDepressão tropical | 45 | 1001 |
| 12/12 | 18:00 | TDDepressão tropical | 45 | 1000 |
| 12/12 | 15:00 | TDDepressão tropical | 45 | 1002 |
| 12/12 | 12:00 | TDDepressão tropical | 45 | 1004 |
| 12/12 | 09:00 | DBPerturbação tropical | 45 | 1004 |
| 12/12 | 06:00 | TDDepressão tropical | 35 | 1004 |
| 12/12 | 03:00 | DBPerturbação tropical | 35 | 1005 |
| 12/12 | 00:00 | TDDepressão tropical | 30 | 1005 |
| 11/12 | 21:00 | DBPerturbação tropical | 30 | 1005 |
| 11/12 | 18:00 | TDDepressão tropical | 30 | 1005 |
| 11/12 | 15:00 | DBPerturbação tropical | 35 | 1006 |
| 11/12 | 12:00 | DBPerturbação tropical | 35 | 1007 |
Cronologia de localização
81 Registos de localizaçãoTambém pode encontrar estas ferramentas úteis
A localização, a extensão e o estado de cada evento podem ser atualizados em momentos diferentes consoante a fonte. Confirme decisões importantes junto das autoridades oficiais de emergência.
Os registos de eventos provêm da NASA EONET e são complementados por registos de deslizamentos de terra do USGS FDSN. As análises e previsões de tempestades podem utilizar a NOAA NHC ou o JTWC, com registos históricos ATCF da UCAR/NCAR quando disponíveis. As imagens de satélite provêm da NASA Worldview/GIBS (GOES e Himawari) ou da EUMETSAT Meteosat, consoante a cobertura do mapa.
Fontes: NASA EONET · USGS · NOAA NHC · JTWC · UCAR/NCAR ATCF · NASA Worldview/GIBS · EUMETSAT Meteosat · OpenStreetMap contributors